Main page
METAR-TAF:

METAR-TAF

Airports :

Geneva Airport

Geneva, Switzerland

latitude: 46-15N, longitude: 006-08E, elevation: 420 m

Current weather observation

The report was made 15 minutes ago, at 15:50 UTC
Wind 6 kt from the East/Northeast
Temperature 16°C
Humidity 36%
Pressure 1019 hPa
Visibility 10 km or more
no clouds below 1500 m and no cumulonimbus

METAR: LSGG 041550Z 06006KT CAVOK 16/01 Q1019 NOSIG

Time: 18:05 (16:05 UTC)

Forecast

The report was made 1 hour and 40 minutes ago, at 14:25 UTC
Forecast valid from 04 at 15 UTC to 05 at 21 UTC
Wind 8 kt from the Northeast
Visibility 10 km or more
no clouds below 1500 m and no cumulonimbus
Becoming
from 04 at 17 UTC to 04 at 19 UTC
Wind 3 kt from variable directions

TAF: LSGG 041425Z 0415/0521 05008KT CAVOK TX16/0415Z TN01/0505Z TX19/0515Z BECMG 0417/0419 VRB03KT

Weather observations and forecasts of more than 4000 airports (METAR and TAF reports).

The available stations are represented by yellow and red dots on the map.

Hover mouse over dot to see the name of the station.

Then click to see weather observations and forecasts.

To change the map : click on the green buttons with a black cross to zoom in, on the green button with a dash to zoom out, or on the green arrows for adjacent maps.


METAR-TAF: